Briefing drone pour Longvic

Rechercher une autre localisation

Conditions de vol :


Nous sommes le : Mardi 24 mai 2022
Il est 06:58 UTC (08:58 LT)

Lever de soleil : 03:27 UTC (05:27 LT)
Coucher de soleil : 19:45 UTC (21:45 LT)

Météo

L'essentiel des conditions de vol

VIGILANCE MÉTÉO FRANCE - Côte-dOr (21)
Pas de vigilances particulieres
CARTE TEMSI
CARTES DES FRONTS
METAR de LFSD
LFSD 240630Z AUTO 24010KT 200V270 9999 BKN026 BKN032 14/09 Q1011

Date d'émission: 24/05/2022
Heure d'émission: 06:30 UTC
Vent: 240° (variable du 200° au 270°) pour 10 KT (19 km/h)
Visibilité horizontale: > 10 km
Plafond :
- Nuages morcelés à 2600ft (792m)
- Nuages morcelés à 3200ft (975m)
Température: 14 °C
Point de rosée: 9 °C
Humidité: 72%
Pression (QNH): 1011 hPa
TAF de LFSD
LFSD 010600Z 0100/0124 CNL

Conditions prévues :

Heure d'émission : Bulletin éffectué le 01 à 00:00 UTC
Prévision : Valide du 01 a 00:00 UTC au 01 a 23:59 UTC
Nuages : à 0ft (0 m)
WEBCAM POUR LONGVIC

Réglementation

Voler en sécurité

CARTES AERONAUTIQUE 1/500.000
CARTES VAC (LFSD)
SUP AIP




Chargement des AIP...
NOTAM (LONGVIC + Terrain à proximité / FIR )




Chargement des NOTAMS...
CONTACT PREFECTURE 21
Côte-dOr (21) : pref-drone@cote-dor.gouv.fr


Avertissement : Les données mises à disposition sont indicatives. Oxygène Drone ne pourra être tenu responsable de dégâts causés aux biens et aux personnes.